Marmet, West Virginia
Current Conditions -  °F | °C
As of 5:54 AM on Thursday 23 Oct 2014 (Local Time) from KCRW Reporting Station
Overcast Overcast  
Wind Chill: 45°   Ceiling: 2400
Heat Index: 47°   Visibility: 10mi
Dew Point: 41°   Wind: 5mph
Humidity: 80%   Direction: 330°NNW
Pressure: 30.2"   Gusts: NA
Location:  38.2341°N, 81.5737°W
Report Text: KCRW 230954Z 33004KT 10SM BKN024 OVC030 08/05 A3020 RMK AO2 SLP227 T00830050
Loading
Personal Weather Stations






























Interactive Weather Map
Tropical Storm Tracking
New forecast layout! Learn more

10-Day Weather Forecast

Advertisements
Track Severe Weather on mobile